createdAt,value
2019-03-16T00:02:27.388Z,99685.00
2019-03-16T00:04:57.867Z,99700.00
2019-03-16T00:07:33.290Z,99706.00
2019-03-16T00:10:00.518Z,99715.00
2019-03-16T00:12:31.064Z,99719.00
2019-03-16T00:15:01.752Z,99704.00
2019-03-16T00:17:32.000Z,99717.00
2019-03-16T00:20:02.568Z,99712.00
2019-03-16T00:22:35.171Z,99704.00
2019-03-16T00:25:05.814Z,99710.00
2019-03-16T00:27:36.326Z,99720.00
2019-03-16T00:30:07.306Z,99710.00
2019-03-16T00:32:42.809Z,99712.00
2019-03-16T00:35:13.450Z,99717.00
2019-03-16T00:37:43.962Z,99723.00
2019-03-16T00:40:14.522Z,99724.00
2019-03-16T00:42:44.918Z,99719.00
2019-03-16T00:45:15.524Z,99736.00
2019-03-16T00:47:45.799Z,99734.00
2019-03-16T00:50:16.106Z,99739.00
2019-03-16T00:52:46.514Z,99748.00
2019-03-16T00:55:17.126Z,99746.00
2019-03-16T00:57:47.389Z,99742.00
2019-03-16T01:00:18.044Z,99743.00
2019-03-16T01:02:48.803Z,99754.00
2019-03-16T01:05:19.144Z,99755.00
2019-03-16T01:07:49.762Z,99761.00
2019-03-16T01:10:20.614Z,99772.00
2019-03-16T01:12:52.244Z,99765.00
2019-03-16T01:15:22.641Z,99765.00
2019-03-16T01:17:53.115Z,99772.00
2019-03-16T01:20:23.457Z,99777.00
2019-03-16T01:22:54.241Z,99778.00
2019-03-16T01:25:25.860Z,99769.00
2019-03-16T01:27:56.288Z,99771.00
2019-03-16T01:30:26.722Z,99773.00
2019-03-16T01:32:57.170Z,99779.00
2019-03-16T01:35:27.986Z,99776.00
2019-03-16T01:37:58.461Z,99768.00
2019-03-16T01:40:29.188Z,99775.00
2019-03-16T01:42:59.617Z,99776.00
2019-03-16T01:45:30.155Z,99773.00
2019-03-16T01:48:00.445Z,99771.00
2019-03-16T01:50:31.221Z,99775.00
2019-03-16T01:53:08.124Z,99782.00
2019-03-16T01:55:38.568Z,99772.00
2019-03-16T01:58:10.234Z,99798.00
2019-03-16T02:00:40.524Z,99780.00
2019-03-16T02:03:11.190Z,99781.00
2019-03-16T02:05:41.540Z,99783.00
2019-03-16T02:08:12.008Z,99792.00
2019-03-16T02:10:45.625Z,99785.00
2019-03-16T02:13:16.553Z,99792.00
2019-03-16T02:15:47.210Z,99781.00
2019-03-16T02:18:17.669Z,99781.00
2019-03-16T02:20:48.160Z,99799.00
2019-03-16T02:23:18.452Z,99805.00
2019-03-16T02:25:48.802Z,99797.00
2019-03-16T02:28:19.473Z,99799.00
2019-03-16T02:30:49.746Z,99810.00
2019-03-16T02:33:20.420Z,99805.00
2019-03-16T02:35:50.798Z,99795.00
2019-03-16T02:38:21.681Z,99802.00
2019-03-16T02:40:53.446Z,99791.00
2019-03-16T02:43:23.756Z,99807.00
2019-03-16T02:45:54.249Z,99808.00
2019-03-16T02:48:24.736Z,99819.00
2019-03-16T02:50:55.393Z,99820.00
2019-03-16T02:53:26.193Z,99819.00
2019-03-16T02:55:56.600Z,99817.00
2019-03-16T02:58:26.909Z,99833.00
2019-03-16T03:01:03.239Z,99833.00
2019-03-16T03:03:33.629Z,99841.00
2019-03-16T03:06:04.112Z,99838.00
2019-03-16T03:08:34.515Z,99833.00
2019-03-16T03:11:04.841Z,99846.00
2019-03-16T03:13:36.272Z,99853.00
2019-03-16T03:16:06.752Z,99848.00
2019-03-16T03:18:37.007Z,99858.00
2019-03-16T03:21:07.425Z,99863.00
2019-03-16T03:23:37.835Z,99871.00
2019-03-16T03:26:08.134Z,99885.00
2019-03-16T03:28:38.673Z,99890.00
2019-03-16T03:31:09.239Z,99890.00
2019-03-16T03:33:58.574Z,99881.00
2019-03-16T03:36:12.510Z,99901.00
2019-03-16T03:38:43.354Z,99898.00
2019-03-16T03:41:13.753Z,99905.00
2019-03-16T03:43:44.090Z,99907.00
2019-03-16T03:46:14.734Z,99903.00
2019-03-16T03:48:45.065Z,99919.00
2019-03-16T03:51:15.447Z,99900.00
2019-03-16T03:53:45.883Z,99904.00
2019-03-16T03:56:16.403Z,99897.00
2019-03-16T03:58:46.804Z,99894.00
2019-03-16T04:01:20.890Z,99891.00
2019-03-16T04:03:51.418Z,99895.00
2019-03-16T04:06:21.808Z,99891.00
2019-03-16T04:08:52.262Z,99889.00
2019-03-16T04:11:22.662Z,99887.00
2019-03-16T04:13:53.179Z,99884.00
2019-03-16T04:16:23.700Z,99894.00
2019-03-16T04:18:54.020Z,99895.00
2019-03-16T04:21:24.507Z,99897.00
2019-03-16T04:23:55.151Z,99900.00
2019-03-16T04:26:27.082Z,99901.00
2019-03-16T04:28:57.340Z,99902.00
2019-03-16T04:31:27.877Z,99908.00
2019-03-16T04:33:58.533Z,99905.00
2019-03-16T04:36:28.865Z,99908.00
2019-03-16T04:38:59.850Z,99900.00
2019-03-16T04:41:30.232Z,99899.00
2019-03-16T04:44:01.618Z,99915.00
2019-03-16T04:46:32.590Z,99900.00
2019-03-16T04:49:03.990Z,99897.00
2019-03-16T04:51:34.265Z,99898.00
2019-03-16T04:54:04.609Z,99906.00
2019-03-16T04:56:34.920Z,99909.00
2019-03-16T04:59:05.296Z,99916.00
2019-03-16T05:01:35.865Z,99904.00
2019-03-16T05:04:06.354Z,99914.00
2019-03-16T05:06:36.516Z,99917.00
2019-03-16T05:09:08.171Z,99918.00
2019-03-16T05:11:38.375Z,99930.00
2019-03-16T05:14:27.668Z,99916.00
2019-03-16T05:16:57.851Z,99930.00
2019-03-16T05:19:27.917Z,99933.00
2019-03-16T05:21:58.161Z,99939.00
2019-03-16T05:24:28.316Z,99932.00
2019-03-16T05:26:58.532Z,99933.00
2019-03-16T05:29:28.799Z,99937.00
2019-03-16T05:31:58.951Z,99939.00
2019-03-16T05:34:31.382Z,99951.00
2019-03-16T05:37:01.704Z,99942.00
2019-03-16T05:39:31.901Z,99941.00
2019-03-16T05:42:05.291Z,99942.00
2019-03-16T05:44:34.024Z,99928.00
2019-03-16T05:47:04.527Z,99934.00
2019-03-16T05:49:35.404Z,99939.00
2019-03-16T05:52:05.901Z,99943.00
2019-03-16T05:54:36.507Z,99949.00
2019-03-16T05:57:07.338Z,99933.00
2019-03-16T05:59:38.611Z,99952.00
2019-03-16T06:02:11.797Z,99960.00
2019-03-16T06:04:43.175Z,99941.00
2019-03-16T06:07:13.830Z,99940.00
2019-03-16T06:09:44.728Z,99940.00
2019-03-16T06:12:15.811Z,99933.00
2019-03-16T06:14:46.645Z,99932.00
2019-03-16T06:17:17.561Z,99944.00
2019-03-16T06:19:48.510Z,99934.00
2019-03-16T06:22:19.207Z,99928.00
2019-03-16T06:24:50.015Z,99940.00
2019-03-16T06:27:21.826Z,99936.00
2019-03-16T06:29:52.819Z,99938.00
2019-03-16T06:32:24.033Z,99939.00
2019-03-16T06:34:54.925Z,99943.00
2019-03-16T06:37:29.071Z,99948.00
2019-03-16T06:39:59.937Z,99953.00
2019-03-16T06:42:30.964Z,99951.00
2019-03-16T06:45:02.141Z,99945.00
2019-03-16T06:47:33.051Z,99959.00
2019-03-16T06:50:03.806Z,99968.00
2019-03-16T06:52:34.607Z,99962.00
2019-03-16T06:55:05.441Z,99965.00
2019-03-16T06:57:36.197Z,99968.00
2019-03-16T07:00:07.477Z,99981.00
2019-03-16T07:02:39.682Z,99973.00
2019-03-16T07:05:12.080Z,99985.00
2019-03-16T07:07:43.107Z,99997.00
2019-03-16T07:10:13.673Z,99979.00
2019-03-16T07:12:44.881Z,99988.00
2019-03-16T07:15:15.621Z,99991.00
2019-03-16T07:17:46.760Z,100009.00
2019-03-16T07:20:17.625Z,100007.00
2019-03-16T07:22:48.783Z,100006.00
2019-03-16T07:25:19.727Z,100016.00
2019-03-16T07:27:50.715Z,100023.00
2019-03-16T07:30:21.563Z,100022.00
2019-03-16T07:32:52.267Z,100019.00
2019-03-16T07:35:23.022Z,100031.00
2019-03-16T07:37:54.029Z,100030.00
2019-03-16T07:40:24.901Z,100028.00
2019-03-16T07:42:55.729Z,100040.00
2019-03-16T07:45:27.523Z,100039.00
2019-03-16T07:47:58.100Z,100048.00
2019-03-16T07:50:31.533Z,100049.00
2019-03-16T07:53:01.884Z,100035.00
2019-03-16T07:55:36.497Z,100045.00
2019-03-16T07:58:07.546Z,100047.00
2019-03-16T08:00:38.479Z,100058.00
2019-03-16T08:03:09.289Z,100050.00
2019-03-16T08:05:40.381Z,100063.00
2019-03-16T08:08:11.194Z,100058.00
2019-03-16T08:10:42.130Z,100047.00
2019-03-16T08:13:12.285Z,100047.00
2019-03-16T08:15:43.074Z,100053.00
2019-03-16T08:18:13.786Z,100046.00
2019-03-16T08:20:44.412Z,100041.00
2019-03-16T08:23:15.474Z,100030.00
2019-03-16T08:25:46.298Z,100034.00
2019-03-16T08:28:17.256Z,100026.00
2019-03-16T08:30:48.066Z,100036.00
2019-03-16T08:33:18.550Z,100045.00
2019-03-16T08:35:49.434Z,100030.00
2019-03-16T08:38:20.589Z,100026.00
2019-03-16T08:40:51.367Z,100024.00
2019-03-16T08:43:22.356Z,100013.00
2019-03-16T08:45:53.066Z,100020.00
2019-03-16T08:48:23.978Z,100024.00
2019-03-16T08:50:56.377Z,100017.00
2019-03-16T08:53:27.214Z,100010.00
2019-03-16T08:55:58.285Z,100014.00
2019-03-16T08:58:33.113Z,100021.00
2019-03-16T09:01:04.040Z,100018.00
2019-03-16T09:03:43.477Z,100014.00
2019-03-16T09:06:07.306Z,100019.00
2019-03-16T09:08:38.166Z,100018.00
2019-03-16T09:11:08.937Z,100018.00
2019-03-16T09:13:39.798Z,100010.00
2019-03-16T09:16:10.601Z,99993.00
2019-03-16T09:18:41.099Z,99996.00
2019-03-16T09:21:11.933Z,99997.00
2019-03-16T09:23:42.523Z,99982.00
2019-03-16T09:26:13.782Z,99983.00
2019-03-16T09:28:44.410Z,99976.00
2019-03-16T09:31:15.628Z,99989.00
2019-03-16T09:33:46.623Z,99975.00
2019-03-16T09:36:21.664Z,99976.00
2019-03-16T09:38:52.690Z,99984.00
2019-03-16T09:41:23.803Z,99982.00
2019-03-16T09:43:54.599Z,99980.00
2019-03-16T09:46:25.552Z,99968.00
2019-03-16T09:48:56.264Z,99966.00
2019-03-16T09:51:26.958Z,99971.00
2019-03-16T09:53:57.485Z,99968.00
2019-03-16T09:56:28.290Z,99952.00
2019-03-16T09:58:58.946Z,99955.00
2019-03-16T10:01:29.370Z,99946.00
2019-03-16T10:04:00.210Z,99929.00
2019-03-16T10:06:31.148Z,99926.00
2019-03-16T10:09:01.642Z,99912.00
2019-03-16T10:11:32.520Z,99901.00
2019-03-16T10:14:03.038Z,99901.00
2019-03-16T10:16:33.728Z,99898.00
2019-03-16T10:19:04.454Z,99889.00
2019-03-16T10:21:34.841Z,99897.00
2019-03-16T10:24:05.526Z,99878.00
2019-03-16T10:26:37.549Z,99871.00
2019-03-16T10:29:08.307Z,99879.00
2019-03-16T10:31:38.856Z,99862.00
2019-03-16T10:34:09.948Z,99865.00
2019-03-16T10:36:40.611Z,99861.00
2019-03-16T10:39:11.010Z,99839.00
2019-03-16T10:41:41.400Z,99834.00
2019-03-16T10:44:12.390Z,99820.00
2019-03-16T10:46:42.557Z,99826.00
2019-03-16T10:49:13.270Z,99805.00
2019-03-16T10:51:43.834Z,99799.00
2019-03-16T10:54:14.727Z,99788.00
2019-03-16T10:56:45.636Z,99798.00
2019-03-16T10:59:17.901Z,99791.00
2019-03-16T11:01:48.732Z,99788.00
2019-03-16T11:04:19.570Z,99780.00
2019-03-16T11:06:50.642Z,99779.00
2019-03-16T11:09:21.218Z,99781.00
2019-03-16T11:11:51.952Z,99777.00
2019-03-16T11:14:23.142Z,99761.00
2019-03-16T11:16:54.031Z,99763.00
2019-03-16T11:19:25.022Z,99745.00
2019-03-16T11:21:55.687Z,99742.00
2019-03-16T11:24:26.463Z,99728.00
2019-03-16T11:26:59.287Z,99755.00
2019-03-16T11:29:29.898Z,99745.00
2019-03-16T11:32:00.422Z,99735.00
2019-03-16T11:34:31.305Z,99729.00
2019-03-16T11:37:01.986Z,99711.00
2019-03-16T11:39:32.597Z,99706.00
2019-03-16T11:42:03.480Z,99718.00
2019-03-16T11:44:37.450Z,99685.00
2019-03-16T11:47:08.114Z,99701.00
2019-03-16T11:49:38.908Z,99691.00
2019-03-16T11:52:10.152Z,99690.00
2019-03-16T11:54:40.658Z,99678.00
2019-03-16T11:57:11.333Z,99675.00
2019-03-16T11:59:42.309Z,99680.00
2019-03-16T12:02:13.068Z,99670.00
2019-03-16T12:04:43.779Z,99662.00
2019-03-16T12:07:14.725Z,99667.00
2019-03-16T12:09:45.576Z,99663.00
2019-03-16T12:12:16.351Z,99650.00
2019-03-16T12:14:53.019Z,99648.00
2019-03-16T12:17:23.690Z,99647.00
2019-03-16T12:19:54.511Z,99645.00
2019-03-16T12:22:25.031Z,99644.00
2019-03-16T12:24:55.764Z,99642.00
2019-03-16T12:27:26.807Z,99637.00
2019-03-16T12:29:57.445Z,99628.00
2019-03-16T12:32:28.085Z,99628.00
2019-03-16T12:34:59.140Z,99626.00
2019-03-16T12:37:30.101Z,99626.00
2019-03-16T12:40:01.121Z,99623.00
2019-03-16T12:42:31.790Z,99615.00
2019-03-16T12:45:02.665Z,99616.00
2019-03-16T12:47:33.388Z,99612.00
2019-03-16T12:50:05.678Z,99610.00
2019-03-16T12:52:43.064Z,99610.00
2019-03-16T12:55:13.911Z,99608.00
2019-03-16T12:57:47.755Z,99613.00
2019-03-16T13:00:17.545Z,99602.00
2019-03-16T13:02:48.488Z,99597.00
2019-03-16T13:05:19.433Z,99594.00
2019-03-16T13:07:50.693Z,99586.00
2019-03-16T13:10:21.434Z,99578.00
2019-03-16T13:12:52.217Z,99580.00
2019-03-16T13:15:23.042Z,99571.00
2019-03-16T13:17:53.790Z,99583.00
2019-03-16T13:20:24.544Z,99598.00
2019-03-16T13:22:55.183Z,99569.00
2019-03-16T13:25:26.637Z,99574.00
2019-03-16T13:27:57.862Z,99573.00
2019-03-16T13:30:28.896Z,99573.00
2019-03-16T13:33:00.159Z,99564.00
2019-03-16T13:35:33.946Z,99572.00
2019-03-16T13:38:10.000Z,99567.00
2019-03-16T13:40:38.934Z,99565.00
2019-03-16T13:43:09.682Z,99572.00
2019-03-16T13:45:40.671Z,99572.00
2019-03-16T13:48:11.270Z,99551.00
2019-03-16T13:50:42.235Z,99553.00
2019-03-16T13:53:13.148Z,99546.00
2019-03-16T13:55:44.013Z,99539.00
2019-03-16T13:58:14.987Z,99540.00
2019-03-16T14:00:46.009Z,99542.00
2019-03-16T14:03:17.164Z,99531.00
2019-03-16T14:05:48.033Z,99541.00
2019-03-16T14:08:18.959Z,99532.00
2019-03-16T14:10:49.654Z,99525.00
2019-03-16T14:13:20.439Z,99531.00
2019-03-16T14:15:51.208Z,99535.00
2019-03-16T14:18:21.978Z,99535.00
2019-03-16T14:20:52.712Z,99530.00
2019-03-16T14:23:23.731Z,99518.00
2019-03-16T14:25:57.557Z,99510.00
2019-03-16T14:28:28.582Z,99538.00
2019-03-16T14:30:59.513Z,99527.00
2019-03-16T14:33:30.098Z,99524.00
2019-03-16T14:36:01.447Z,99529.00
2019-03-16T14:38:32.472Z,99521.00
2019-03-16T14:41:03.346Z,99504.00
2019-03-16T14:43:34.440Z,99517.00
2019-03-16T14:46:05.703Z,99489.00
2019-03-16T14:48:36.489Z,99516.00
2019-03-16T14:51:10.095Z,99506.00
2019-03-16T14:53:40.900Z,99513.00
2019-03-16T14:56:11.647Z,99517.00
2019-03-16T14:58:42.147Z,99519.00
2019-03-16T15:01:13.284Z,99510.00
2019-03-16T15:03:46.848Z,99532.00
2019-03-16T15:06:17.633Z,99517.00
2019-03-16T15:08:48.667Z,99519.00
2019-03-16T15:11:22.572Z,99523.00
2019-03-16T15:13:54.023Z,99518.00
2019-03-16T15:16:25.050Z,99513.00
2019-03-16T15:18:59.928Z,99505.00
2019-03-16T15:21:29.060Z,99514.00
2019-03-16T15:24:00.032Z,99497.00
2019-03-16T15:26:30.650Z,99497.00
2019-03-16T15:29:00.994Z,99488.00
2019-03-16T15:31:32.573Z,99489.00
2019-03-16T15:34:04.407Z,99496.00
2019-03-16T15:36:34.928Z,99502.00
2019-03-16T15:39:08.884Z,99488.00
2019-03-16T15:41:39.419Z,99484.00
2019-03-16T15:44:10.144Z,99488.00
2019-03-16T15:46:40.741Z,99482.00
2019-03-16T15:49:11.225Z,99495.00
2019-03-16T15:51:41.725Z,99476.00
2019-03-16T15:54:12.458Z,99487.00
2019-03-16T15:56:43.095Z,99481.00
2019-03-16T15:59:13.532Z,99480.00
2019-03-16T16:01:44.080Z,99481.00
2019-03-16T16:04:14.692Z,99480.00
2019-03-16T16:06:47.064Z,99494.00
2019-03-16T16:09:17.648Z,99489.00
2019-03-16T16:11:48.127Z,99483.00
2019-03-16T16:14:18.633Z,99479.00
2019-03-16T16:16:49.370Z,99489.00
2019-03-16T16:19:21.770Z,99488.00
2019-03-16T16:21:52.300Z,99493.00
2019-03-16T16:24:22.923Z,99488.00
2019-03-16T16:26:53.831Z,99484.00
2019-03-16T16:29:24.592Z,99479.00
2019-03-16T16:31:56.367Z,99477.00
2019-03-16T16:34:27.159Z,99485.00
2019-03-16T16:36:57.786Z,99464.00
2019-03-16T16:39:28.704Z,99474.00
2019-03-16T16:41:59.398Z,99466.00
2019-03-16T16:44:30.036Z,99477.00
2019-03-16T16:47:00.672Z,99475.00
2019-03-16T16:49:31.340Z,99454.00
2019-03-16T16:52:02.192Z,99468.00
2019-03-16T16:54:33.044Z,99462.00
2019-03-16T16:57:03.775Z,99449.00
2019-03-16T16:59:34.371Z,99449.00
2019-03-16T17:02:05.222Z,99437.00
2019-03-16T17:04:35.567Z,99447.00
2019-03-16T17:07:06.052Z,99451.00
2019-03-16T17:09:41.535Z,99438.00
2019-03-16T17:12:11.798Z,99451.00
2019-03-16T17:14:42.142Z,99436.00
2019-03-16T17:17:12.298Z,99439.00
2019-03-16T17:19:42.818Z,99437.00
2019-03-16T17:22:13.076Z,99428.00
2019-03-16T17:24:43.374Z,99427.00
2019-03-16T17:27:13.647Z,99422.00
2019-03-16T17:29:43.876Z,99400.00
2019-03-16T17:32:14.055Z,99408.00
2019-03-16T17:34:44.482Z,99396.00
2019-03-16T17:37:15.955Z,99421.00
2019-03-16T17:39:46.123Z,99418.00
2019-03-16T17:42:16.393Z,99408.00
2019-03-16T17:44:46.623Z,99420.00
2019-03-16T17:47:16.857Z,99429.00
2019-03-16T17:49:48.498Z,99433.00
2019-03-16T17:52:18.774Z,99434.00
2019-03-16T17:54:49.252Z,99432.00
2019-03-16T17:57:19.744Z,99439.00
2019-03-16T17:59:50.160Z,99434.00
2019-03-16T18:02:20.640Z,99424.00
2019-03-16T18:04:51.022Z,99427.00
2019-03-16T18:07:21.346Z,99426.00
2019-03-16T18:09:51.723Z,99425.00
2019-03-16T18:12:23.704Z,99434.00
2019-03-16T18:14:54.194Z,99425.00
2019-03-16T18:17:24.736Z,99421.00
2019-03-16T18:19:54.952Z,99422.00
2019-03-16T18:22:25.380Z,99418.00
2019-03-16T18:24:56.449Z,99422.00
2019-03-16T18:27:26.935Z,99418.00
2019-03-16T18:29:57.352Z,99425.00
2019-03-16T18:32:28.003Z,99437.00
2019-03-16T18:34:58.434Z,99414.00
2019-03-16T18:37:28.938Z,99406.00
2019-03-16T18:39:59.212Z,99410.00
2019-03-16T18:42:29.543Z,99418.00
2019-03-16T18:44:59.856Z,99422.00
2019-03-16T18:47:31.119Z,99415.00
2019-03-16T18:50:01.917Z,99422.00
2019-03-16T18:52:32.396Z,99412.00
2019-03-16T18:55:02.989Z,99405.00
2019-03-16T18:57:33.393Z,99416.00
2019-03-16T19:00:04.542Z,99411.00
2019-03-16T19:02:34.838Z,99417.00
2019-03-16T19:05:05.234Z,99403.00
2019-03-16T19:07:35.620Z,99409.00
2019-03-16T19:10:06.992Z,99405.00
2019-03-16T19:12:37.386Z,99392.00
2019-03-16T19:15:09.551Z,99394.00
2019-03-16T19:17:39.889Z,99383.00
2019-03-16T19:20:11.422Z,99382.00
2019-03-16T19:22:41.840Z,99384.00
2019-03-16T19:25:13.347Z,99392.00
2019-03-16T19:27:43.670Z,99385.00
2019-03-16T19:30:14.793Z,99392.00
2019-03-16T19:32:45.089Z,99390.00
2019-03-16T19:35:15.602Z,99378.00
2019-03-16T19:37:46.274Z,99379.00
2019-03-16T19:40:16.716Z,99391.00
2019-03-16T19:42:47.401Z,99400.00
2019-03-16T19:45:18.125Z,99400.00
2019-03-16T19:47:48.460Z,99388.00
2019-03-16T19:50:20.213Z,99383.00
2019-03-16T19:52:50.595Z,99378.00
2019-03-16T19:55:21.104Z,99371.00
2019-03-16T19:57:51.465Z,99371.00
2019-03-16T20:00:21.809Z,99376.00
2019-03-16T20:02:52.205Z,99368.00
2019-03-16T20:05:24.961Z,99372.00
2019-03-16T20:07:55.277Z,99364.00
2019-03-16T20:10:25.715Z,99373.00
2019-03-16T20:12:56.209Z,99383.00
2019-03-16T20:15:26.512Z,99380.00
2019-03-16T20:17:56.875Z,99371.00
2019-03-16T20:20:27.241Z,99368.00
2019-03-16T20:22:59.009Z,99388.00
2019-03-16T20:25:29.369Z,99387.00
2019-03-16T20:28:02.893Z,99392.00
2019-03-16T20:30:33.207Z,99397.00
2019-03-16T20:33:04.542Z,99385.00
2019-03-16T20:35:35.233Z,99369.00
2019-03-16T20:38:06.135Z,99371.00
2019-03-16T20:40:37.929Z,99363.00
2019-03-16T20:43:08.277Z,99366.00
2019-03-16T20:45:38.698Z,99366.00
2019-03-16T20:48:09.075Z,99358.00
2019-03-16T20:50:39.451Z,99368.00
2019-03-16T20:53:09.987Z,99368.00
2019-03-16T20:55:40.395Z,99365.00
2019-03-16T20:58:10.850Z,99352.00
2019-03-16T21:00:41.144Z,99359.00
2019-03-16T21:03:15.947Z,99348.00
2019-03-16T21:05:43.457Z,99361.00
2019-03-16T21:08:13.775Z,99354.00
2019-03-16T21:10:44.142Z,99352.00
2019-03-16T21:13:14.795Z,99347.00
2019-03-16T21:15:45.387Z,99356.00
2019-03-16T21:18:15.968Z,99345.00
2019-03-16T21:20:46.311Z,99339.00
2019-03-16T21:23:18.005Z,99344.00
2019-03-16T21:25:48.341Z,99345.00
2019-03-16T21:28:20.617Z,99326.00
2019-03-16T21:30:51.235Z,99335.00
2019-03-16T21:33:29.503Z,99337.00
2019-03-16T21:35:53.491Z,99339.00
2019-03-16T21:38:25.973Z,99339.00
2019-03-16T21:40:56.195Z,99336.00
2019-03-16T21:43:26.730Z,99329.00
2019-03-16T21:45:57.126Z,99335.00
2019-03-16T21:48:27.395Z,99321.00
2019-03-16T21:50:58.045Z,99321.00
2019-03-16T21:53:28.497Z,99319.00
2019-03-16T21:55:59.103Z,99317.00
2019-03-16T21:58:29.342Z,99307.00
2019-03-16T22:00:59.802Z,99296.00
2019-03-16T22:03:41.685Z,99288.00
2019-03-16T22:06:05.279Z,99294.00
2019-03-16T22:08:36.773Z,99283.00
2019-03-16T22:11:07.917Z,99284.00
2019-03-16T22:13:38.293Z,99282.00
2019-03-16T22:16:11.635Z,99272.00
2019-03-16T22:18:40.778Z,99278.00
2019-03-16T22:21:11.521Z,99285.00
2019-03-16T22:23:41.899Z,99279.00
2019-03-16T22:26:12.333Z,99271.00
2019-03-16T22:28:42.699Z,99261.00
2019-03-16T22:31:13.197Z,99260.00
2019-03-16T22:33:53.986Z,99262.00
2019-03-16T22:36:15.573Z,99252.00
2019-03-16T22:38:46.124Z,99259.00
2019-03-16T22:41:17.151Z,99240.00
2019-03-16T22:43:47.611Z,99249.00
2019-03-16T22:46:18.200Z,99224.00
2019-03-16T22:48:48.761Z,99226.00
2019-03-16T22:51:19.061Z,99230.00
2019-03-16T22:53:49.499Z,99231.00
2019-03-16T22:56:19.966Z,99239.00
2019-03-16T22:58:50.530Z,99225.00
2019-03-16T23:01:20.950Z,99213.00
2019-03-16T23:03:51.691Z,99209.00
2019-03-16T23:06:22.075Z,99200.00
2019-03-16T23:08:52.414Z,99209.00
2019-03-16T23:11:23.065Z,99193.00
2019-03-16T23:13:53.634Z,99197.00
2019-03-16T23:16:24.014Z,99189.00
2019-03-16T23:18:54.474Z,99201.00
2019-03-16T23:21:25.198Z,99196.00
2019-03-16T23:23:57.189Z,99182.00
2019-03-16T23:26:38.026Z,99180.00
2019-03-16T23:28:59.625Z,99172.00
2019-03-16T23:31:29.961Z,99183.00
2019-03-16T23:34:00.776Z,99177.00
2019-03-16T23:36:31.453Z,99171.00
2019-03-16T23:39:04.229Z,99173.00
2019-03-16T23:41:34.596Z,99176.00
2019-03-16T23:44:05.012Z,99163.00
2019-03-16T23:46:35.279Z,99156.00
2019-03-16T23:49:05.678Z,99156.00
2019-03-16T23:51:36.566Z,99148.00
2019-03-16T23:54:06.838Z,99147.00
2019-03-16T23:56:37.299Z,99151.00
2019-03-16T23:59:07.621Z,99144.00
